Time;durP1;ratioP1;P1;durP2;ratioP2;P2;SDS_P1;SDS_P2;PMS_P1;PMS_P2;Temp;Humidity;BMP_temperature;BMP_pressure;BME280_temperature;BME280_humidity;BME280_pressure;Samples;Min_cycle;Max_cycle;Signal;HPM_P1;HPM_P2
2021/05/16 00:00:34;;;;;;;0.93;0.90;;;;;;;18.76;50.96;99382.89;;;;-52
2021/05/16 00:03:32;;;;;;;0.99;0.89;;;;;;;18.76;50.95;99385.97;;;;-52
2021/05/16 00:06:33;;;;;;;1.13;0.99;;;;;;;18.75;51.00;99379.89;;;;-52
2021/05/16 00:09:33;;;;;;;0.90;0.90;;;;;;;18.74;51.00;99386.31;;;;-58
2021/05/16 00:12:33;;;;;;;0.87;0.87;;;;;;;18.74;50.97;99390.86;;;;-59
2021/05/16 00:15:33;;;;;;;0.95;0.95;;;;;;;18.73;50.97;99387.77;;;;-55
2021/05/16 00:18:32;;;;;;;0.90;0.90;;;;;;;18.73;50.99;99384.28;;;;-55
2021/05/16 00:21:33;;;;;;;0.76;0.76;;;;;;;18.72;51.00;99381.47;;;;-52
2021/05/16 00:24:33;;;;;;;0.80;0.80;;;;;;;18.72;51.00;99377.41;;;;-52
2021/05/16 00:27:32;;;;;;;0.87;0.87;;;;;;;18.71;51.00;99372.28;;;;-59
2021/05/16 00:30:33;;;;;;;1.10;1.00;;;;;;;18.71;51.03;99377.80;;;;-58
2021/05/16 00:33:33;;;;;;;0.89;0.89;;;;;;;18.70;50.96;99370.44;;;;-54
2021/05/16 00:36:32;;;;;;;1.44;1.07;;;;;;;18.70;51.03;99371.09;;;;-58
2021/05/16 00:39:33;;;;;;;0.91;0.91;;;;;;;18.69;50.99;99366.94;;;;-55
2021/05/16 00:42:33;;;;;;;0.87;0.87;;;;;;;18.68;51.01;99364.69;;;;-55
2021/05/16 00:45:34;;;;;;;0.90;0.90;;;;;;;18.69;50.99;99371.49;;;;-54
2021/05/16 00:48:33;;;;;;;0.90;0.90;;;;;;;18.68;51.01;99370.78;;;;-55
2021/05/16 00:51:33;;;;;;;0.95;0.92;;;;;;;18.67;51.01;99371.66;;;;-52
2021/05/16 00:54:32;;;;;;;0.87;0.87;;;;;;;18.67;51.00;99371.33;;;;-51
2021/05/16 00:57:33;;;;;;;0.87;0.87;;;;;;;18.67;50.95;99369.23;;;;-52
2021/05/16 01:00:36;;;;;;;0.78;0.78;;;;;;;18.66;51.01;99364.95;;;;-58
2021/05/16 01:03:33;;;;;;;0.89;0.89;;;;;;;18.66;51.01;99365.92;;;;-55
2021/05/16 01:06:33;;;;;;;1.29;0.85;;;;;;;18.65;51.02;99361.06;;;;-54
2021/05/16 01:09:32;;;;;;;0.79;0.79;;;;;;;18.65;50.96;99354.56;;;;-51
2021/05/16 01:12:40;;;;;;;1.11;0.96;;;;;;;18.64;50.96;99350.84;;;;-51
2021/05/16 01:15:33;;;;;;;0.81;0.81;;;;;;;18.63;50.98;99345.56;;;;-55
2021/05/16 01:18:33;;;;;;;0.77;0.77;;;;;;;18.63;50.98;99344.36;;;;-51
2021/05/16 01:21:33;;;;;;;0.90;0.90;;;;;;;18.63;50.97;99346.86;;;;-54
2021/05/16 01:24:33;;;;;;;0.98;0.93;;;;;;;18.62;50.96;99346.00;;;;-54
2021/05/16 01:27:33;;;;;;;0.83;0.82;;;;;;;18.63;50.99;99351.98;;;;-52
2021/05/16 01:30:33;;;;;;;0.81;0.81;;;;;;;18.62;51.04;99349.80;;;;-54
2021/05/16 01:33:33;;;;;;;0.82;0.81;;;;;;;18.61;51.01;99353.45;;;;-54
2021/05/16 01:36:33;;;;;;;0.81;0.81;;;;;;;18.61;51.05;99353.37;;;;-52
2021/05/16 01:39:33;;;;;;;0.94;0.94;;;;;;;18.61;51.00;99353.62;;;;-51
2021/05/16 01:42:32;;;;;;;1.05;1.00;;;;;;;18.60;50.97;99349.67;;;;-54
2021/05/16 01:45:33;;;;;;;0.98;0.90;;;;;;;18.60;51.06;99353.48;;;;-51
2021/05/16 01:48:33;;;;;;;0.83;0.83;;;;;;;18.59;51.01;99356.33;;;;-55
2021/05/16 01:51:32;;;;;;;0.87;0.87;;;;;;;18.59;51.06;99356.06;;;;-51
2021/05/16 01:54:33;;;;;;;0.86;0.86;;;;;;;18.59;51.00;99360.70;;;;-52
2021/05/16 01:57:32;;;;;;;0.84;0.84;;;;;;;18.58;50.99;99357.21;;;;-58
2021/05/16 02:00:32;;;;;;;1.48;1.00;;;;;;;18.58;51.03;99359.48;;;;-57
2021/05/16 02:03:33;;;;;;;1.71;1.00;;;;;;;18.57;51.06;99352.67;;;;-55
2021/05/16 02:06:32;;;;;;;1.33;0.93;;;;;;;18.57;51.02;99356.73;;;;-59
2021/05/16 02:09:33;;;;;;;0.90;0.90;;;;;;;18.57;51.07;99355.59;;;;-58
2021/05/16 02:12:33;;;;;;;0.77;0.77;;;;;;;18.57;51.06;99358.59;;;;-59
2021/05/16 02:15:32;;;;;;;0.70;0.70;;;;;;;18.56;50.95;99356.18;;;;-57
2021/05/16 02:18:33;;;;;;;0.76;0.76;;;;;;;18.56;51.03;99354.16;;;;-58
2021/05/16 02:21:33;;;;;;;0.89;0.89;;;;;;;18.56;51.01;99356.42;;;;-55
2021/05/16 02:24:33;;;;;;;0.89;0.89;;;;;;;18.55;50.99;99354.98;;;;-51
2021/05/16 02:27:33;;;;;;;0.82;0.82;;;;;;;18.55;50.97;99347.68;;;;-51
2021/05/16 02:30:32;;;;;;;0.79;0.79;;;;;;;18.55;51.08;99346.80;;;;-51
2021/05/16 02:33:32;;;;;;;0.88;0.88;;;;;;;18.54;51.04;99343.30;;;;-53
2021/05/16 02:36:33;;;;;;;0.92;0.91;;;;;;;18.54;50.94;99340.45;;;;-58
2021/05/16 02:39:33;;;;;;;0.80;0.80;;;;;;;18.54;51.03;99337.38;;;;-52
2021/05/16 02:42:33;;;;;;;1.09;0.84;;;;;;;18.54;51.04;99339.00;;;;-52
2021/05/16 02:45:33;;;;;;;0.87;0.87;;;;;;;18.54;51.04;99345.17;;;;-52
2021/05/16 02:48:32;;;;;;;0.87;0.87;;;;;;;18.53;51.00;99347.34;;;;-57
2021/05/16 02:51:33;;;;;;;0.90;0.90;;;;;;;18.52;51.03;99349.47;;;;-51
2021/05/16 02:54:33;;;;;;;0.89;0.89;;;;;;;18.53;50.99;99348.58;;;;-54
2021/05/16 02:57:32;;;;;;;0.90;0.90;;;;;;;18.52;51.09;99347.13;;;;-58
2021/05/16 03:00:33;;;;;;;0.70;0.70;;;;;;;18.51;51.03;99342.03;;;;-52
2021/05/16 03:03:33;;;;;;;0.90;0.90;;;;;;;18.51;51.01;99338.55;;;;-58
2021/05/16 03:06:32;;;;;;;0.97;0.97;;;;;;;18.51;51.00;99336.33;;;;-52
2021/05/16 03:09:34;;;;;;;0.87;0.87;;;;;;;18.51;50.99;99332.36;;;;-52
2021/05/16 03:12:33;;;;;;;0.80;0.80;;;;;;;18.50;51.07;99326.22;;;;-58
2021/05/16 03:15:33;;;;;;;0.91;0.85;;;;;;;18.50;50.97;99329.63;;;;-55
2021/05/16 03:18:33;;;;;;;0.89;0.89;;;;;;;18.50;50.94;99332.22;;;;-54
2021/05/16 03:21:32;;;;;;;0.77;0.76;;;;;;;18.50;51.05;99331.73;;;;-52
2021/05/16 03:24:33;;;;;;;0.90;0.90;;;;;;;18.50;51.01;99329.95;;;;-52
2021/05/16 03:27:33;;;;;;;0.91;0.90;;;;;;;18.49;51.05;99330.52;;;;-52
2021/05/16 03:30:32;;;;;;;0.90;0.90;;;;;;;18.48;51.09;99327.67;;;;-51
2021/05/16 03:33:33;;;;;;;0.80;0.80;;;;;;;18.48;51.01;99331.66;;;;-54
2021/05/16 03:36:32;;;;;;;0.90;0.90;;;;;;;18.48;51.06;99328.57;;;;-58
2021/05/16 03:39:32;;;;;;;0.85;0.83;;;;;;;18.48;51.06;99330.86;;;;-54
2021/05/16 03:42:33;;;;;;;0.80;0.80;;;;;;;18.48;51.05;99333.28;;;;-52
2021/05/16 03:45:32;;;;;;;0.80;0.80;;;;;;;18.48;51.01;99335.07;;;;-52
2021/05/16 03:48:33;;;;;;;0.80;0.80;;;;;;;18.48;51.01;99337.26;;;;-55
2021/05/16 03:51:33;;;;;;;0.90;0.90;;;;;;;18.48;51.07;99337.67;;;;-51
2021/05/16 03:54:32;;;;;;;0.81;0.81;;;;;;;18.47;51.04;99333.62;;;;-51
2021/05/16 03:57:32;;;;;;;0.91;0.85;;;;;;;18.47;51.06;99334.41;;;;-51
2021/05/16 04:00:33;;;;;;;0.80;0.80;;;;;;;18.46;51.03;99337.36;;;;-52
2021/05/16 04:03:32;;;;;;;0.96;0.96;;;;;;;18.46;51.07;99337.76;;;;-51
2021/05/16 04:06:33;;;;;;;0.72;0.72;;;;;;;18.46;51.09;99339.70;;;;-52
2021/05/16 04:09:32;;;;;;;0.82;0.82;;;;;;;18.45;51.03;99335.56;;;;-51
2021/05/16 04:12:32;;;;;;;0.92;0.92;;;;;;;18.45;51.02;99336.63;;;;-54
2021/05/16 04:15:33;;;;;;;0.81;0.81;;;;;;;18.45;51.04;99334.27;;;;-58
2021/05/16 04:18:32;;;;;;;0.81;0.81;;;;;;;18.45;51.09;99339.95;;;;-54
2021/05/16 04:21:32;;;;;;;1.07;0.97;;;;;;;18.44;51.11;99337.27;;;;-51
2021/05/16 04:24:33;;;;;;;0.85;0.83;;;;;;;18.44;51.03;99336.89;;;;-51
2021/05/16 04:27:32;;;;;;;0.97;0.89;;;;;;;18.44;51.11;99338.82;;;;-51
2021/05/16 04:30:32;;;;;;;0.90;0.90;;;;;;;18.44;51.10;99340.30;;;;-52
2021/05/16 04:33:33;;;;;;;0.80;0.80;;;;;;;18.43;51.06;99332.52;;;;-52
2021/05/16 04:36:33;;;;;;;0.90;0.90;;;;;;;18.43;51.11;99333.49;;;;-52
2021/05/16 04:39:33;;;;;;;1.01;0.89;;;;;;;18.43;51.02;99338.27;;;;-57
2021/05/16 04:42:32;;;;;;;0.90;0.90;;;;;;;18.42;51.04;99339.89;;;;-58
2021/05/16 04:45:32;;;;;;;1.41;0.92;;;;;;;18.42;51.05;99339.08;;;;-52
2021/05/16 04:48:33;;;;;;;0.80;0.80;;;;;;;18.42;51.06;99341.27;;;;-57
2021/05/16 04:51:32;;;;;;;0.80;0.80;;;;;;;18.42;51.03;99334.30;;;;-51
2021/05/16 04:54:32;;;;;;;0.85;0.85;;;;;;;18.41;51.07;99331.47;;;;-51
2021/05/16 04:57:33;;;;;;;0.77;0.77;;;;;;;18.41;51.01;99332.05;;;;-52
2021/05/16 05:00:32;;;;;;;0.90;0.90;;;;;;;18.41;51.00;99331.56;;;;-52
2021/05/16 05:03:32;;;;;;;0.89;0.89;;;;;;;18.41;51.01;99332.94;;;;-57
2021/05/16 05:06:33;;;;;;;0.90;0.90;;;;;;;18.41;50.99;99337.37;;;;-58
2021/05/16 05:09:32;;;;;;;0.88;0.88;;;;;;;18.41;50.99;99339.81;;;;-57
2021/05/16 05:12:33;;;;;;;1.10;0.85;;;;;;;18.41;50.98;99341.22;;;;-58
2021/05/16 05:15:33;;;;;;;0.86;0.86;;;;;;;18.41;50.97;99342.67;;;;-57
2021/05/16 05:18:33;;;;;;;0.79;0.79;;;;;;;18.40;50.97;99346.39;;;;-51
2021/05/16 05:21:32;;;;;;;0.83;0.83;;;;;;;18.40;51.03;99345.98;;;;-51
2021/05/16 05:24:33;;;;;;;0.85;0.85;;;;;;;18.40;51.03;99347.13;;;;-58
2021/05/16 05:27:32;;;;;;;0.83;0.83;;;;;;;18.40;51.03;99351.42;;;;-52
2021/05/16 05:30:33;;;;;;;0.90;0.90;;;;;;;18.41;50.99;99351.11;;;;-53
2021/05/16 05:33:33;;;;;;;0.77;0.77;;;;;;;18.42;50.92;99357.83;;;;-54
2021/05/16 05:36:32;;;;;;;0.88;0.88;;;;;;;18.42;50.78;99354.32;;;;-54
2021/05/16 05:39:33;;;;;;;0.75;0.75;;;;;;;18.43;50.77;99352.55;;;;-54
2021/05/16 05:42:32;;;;;;;0.83;0.83;;;;;;;18.45;50.66;99355.13;;;;-51
2021/05/16 05:45:33;;;;;;;1.02;0.70;;;;;;;18.47;50.72;99355.77;;;;-52
2021/05/16 05:48:33;;;;;;;0.69;0.69;;;;;;;18.49;50.71;99358.68;;;;-51
2021/05/16 05:51:32;;;;;;;0.87;0.87;;;;;;;18.51;50.73;99355.17;;;;-51
2021/05/16 05:54:34;;;;;;;0.89;0.89;;;;;;;18.54;50.79;99355.72;;;;-52
2021/05/16 05:57:33;;;;;;;0.91;0.91;;;;;;;18.57;50.77;99359.66;;;;-59
2021/05/16 06:00:33;;;;;;;0.70;0.70;;;;;;;18.60;50.96;99352.03;;;;-54
2021/05/16 06:03:32;;;;;;;0.83;0.83;;;;;;;18.63;50.84;99350.85;;;;-51
2021/05/16 06:06:33;;;;;;;0.85;0.83;;;;;;;18.65;50.90;99348.89;;;;-51
2021/05/16 06:09:34;;;;;;;0.86;0.86;;;;;;;18.69;50.91;99351.13;;;;-51
2021/05/16 06:12:32;;;;;;;0.91;0.91;;;;;;;18.71;50.90;99357.77;;;;-51
2021/05/16 06:15:32;;;;;;;0.70;0.70;;;;;;;18.73;50.84;99356.45;;;;-55
2021/05/16 06:18:32;;;;;;;0.77;0.77;;;;;;;18.75;50.93;99358.70;;;;-59
2021/05/16 06:21:33;;;;;;;0.73;0.73;;;;;;;18.77;51.07;99355.92;;;;-54
2021/05/16 06:24:32;;;;;;;0.78;0.78;;;;;;;18.78;50.98;99355.14;;;;-54
2021/05/16 06:27:32;;;;;;;0.95;0.95;;;;;;;18.81;50.96;99360.32;;;;-52
2021/05/16 06:30:34;;;;;;;0.89;0.89;;;;;;;18.82;50.95;99356.88;;;;-52
2021/05/16 06:33:32;;;;;;;1.03;0.97;;;;;;;18.83;51.06;99361.50;;;;-58
2021/05/16 06:36:32;;;;;;;0.89;0.89;;;;;;;18.85;51.07;99366.28;;;;-51
2021/05/16 06:39:33;;;;;;;0.95;0.95;;;;;;;18.85;50.97;99370.91;;;;-51
2021/05/16 06:42:33;;;;;;;0.79;0.79;;;;;;;18.86;51.01;99370.89;;;;-51
2021/05/16 06:45:32;;;;;;;0.99;0.97;;;;;;;18.86;50.85;99374.64;;;;-51
2021/05/16 06:48:33;;;;;;;0.80;0.80;;;;;;;18.87;50.93;99369.76;;;;-51
2021/05/16 06:51:33;;;;;;;0.70;0.70;;;;;;;18.88;50.91;99372.35;;;;-51
2021/05/16 06:54:32;;;;;;;0.70;0.70;;;;;;;18.89;50.91;99379.57;;;;-52
2021/05/16 06:57:32;;;;;;;0.79;0.79;;;;;;;18.90;50.83;99378.08;;;;-52
2021/05/16 07:00:32;;;;;;;0.74;0.74;;;;;;;18.90;50.82;99370.70;;;;-52
2021/05/16 07:03:35;;;;;;;0.73;0.73;;;;;;;18.90;50.84;99365.66;;;;-52
2021/05/16 07:06:32;;;;;;;0.76;0.76;;;;;;;18.90;50.83;99365.66;;;;-52
2021/05/16 07:09:32;;;;;;;0.80;0.80;;;;;;;18.90;50.78;99366.88;;;;-51
2021/05/16 07:12:33;;;;;;;0.77;0.77;;;;;;;18.90;50.73;99363.30;;;;-51
2021/05/16 07:15:33;;;;;;;0.81;0.81;;;;;;;18.91;50.77;99367.20;;;;-58
2021/05/16 07:18:32;;;;;;;0.78;0.78;;;;;;;18.91;50.69;99370.30;;;;-58
2021/05/16 07:21:32;;;;;;;0.69;0.69;;;;;;;18.91;50.68;99367.63;;;;-52
2021/05/16 07:24:33;;;;;;;0.80;0.80;;;;;;;18.90;50.63;99365.66;;;;-55
2021/05/16 07:27:32;;;;;;;0.90;0.90;;;;;;;18.90;50.65;99363.55;;;;-58
2021/05/16 07:30:33;;;;;;;0.81;0.81;;;;;;;18.89;50.59;99368.84;;;;-57
2021/05/16 07:33:32;;;;;;;0.80;0.80;;;;;;;18.89;50.73;99367.55;;;;-58
2021/05/16 07:36:32;;;;;;;0.80;0.80;;;;;;;18.90;50.63;99366.97;;;;-58
2021/05/16 07:39:33;;;;;;;0.81;0.80;;;;;;;18.89;50.58;99361.39;;;;-58
2021/05/16 07:42:32;;;;;;;3.15;0.99;;;;;;;18.90;50.70;99359.09;;;;-61
2021/05/16 07:45:33;;;;;;;3.68;1.18;;;;;;;18.84;51.88;99358.09;;;;-55
2021/05/16 07:48:32;;;;;;;4.64;1.19;;;;;;;18.78;52.58;99355.85;;;;-55
2021/05/16 07:51:32;;;;;;;2.45;1.30;;;;;;;18.71;53.56;99358.83;;;;-54
2021/05/16 07:54:32;;;;;;;2.88;1.11;;;;;;;18.77;53.02;99358.94;;;;-54
2021/05/16 07:57:32;;;;;;;1.77;1.26;;;;;;;18.80;52.63;99355.36;;;;-51
2021/05/16 08:00:32;;;;;;;3.34;1.23;;;;;;;18.83;52.34;99354.13;;;;-52
2021/05/16 08:03:33;;;;;;;1.27;1.07;;;;;;;18.85;51.94;99353.86;;;;-52
2021/05/16 08:06:32;;;;;;;1.87;1.20;;;;;;;18.88;51.86;99355.22;;;;-52
2021/05/16 08:09:32;;;;;;;2.15;1.16;;;;;;;18.89;51.68;99359.84;;;;-55
2021/05/16 08:12:33;;;;;;;1.45;1.21;;;;;;;18.90;51.47;99353.72;;;;-54
2021/05/16 08:15:33;;;;;;;1.94;1.11;;;;;;;18.92;51.52;99356.55;;;;-55
2021/05/16 08:18:32;;;;;;;2.48;1.19;;;;;;;18.93;51.36;99357.22;;;;-55
2021/05/16 08:21:33;;;;;;;2.00;1.13;;;;;;;18.93;51.28;99355.91;;;;-51
2021/05/16 08:24:32;;;;;;;1.63;1.20;;;;;;;18.94;51.19;99347.02;;;;-55
2021/05/16 08:27:32;;;;;;;1.21;1.00;;;;;;;18.95;51.18;99345.25;;;;-55
2021/05/16 08:30:32;;;;;;;1.74;1.23;;;;;;;18.96;51.11;99345.14;;;;-55
2021/05/16 08:33:32;;;;;;;1.49;1.02;;;;;;;18.97;51.04;99344.83;;;;-54
2021/05/16 08:36:33;;;;;;;1.07;0.97;;;;;;;18.97;50.99;99342.55;;;;-54
2021/05/16 08:39:32;;;;;;;3.98;1.20;;;;;;;18.98;51.21;99337.25;;;;-51
2021/05/16 08:42:32;;;;;;;1.52;1.10;;;;;;;19.01;51.60;99334.07;;;;-58
2021/05/16 08:45:32;;;;;;;1.73;1.12;;;;;;;19.01;51.22;99331.98;;;;-56
2021/05/16 08:48:32;;;;;;;1.55;1.15;;;;;;;19.02;51.11;99334.55;;;;-56
2021/05/16 08:51:32;;;;;;;1.88;1.05;;;;;;;19.01;50.97;99332.36;;;;-57
2021/05/16 08:54:33;;;;;;;2.93;1.03;;;;;;;19.02;50.98;99336.91;;;;-53
2021/05/16 08:57:32;;;;;;;2.19;1.09;;;;;;;19.02;50.92;99335.83;;;;-53
2021/05/16 09:00:33;;;;;;;1.99;1.10;;;;;;;19.01;50.88;99334.56;;;;-57
2021/05/16 09:03:32;;;;;;;2.12;1.25;;;;;;;19.02;50.92;99330.23;;;;-56
2021/05/16 09:06:32;;;;;;;1.88;1.02;;;;;;;19.01;50.91;99325.14;;;;-57
2021/05/16 09:09:33;;;;;;;1.09;1.00;;;;;;;19.02;50.95;99322.28;;;;-56
2021/05/16 09:12:32;;;;;;;2.33;1.17;;;;;;;19.01;50.88;99323.03;;;;-57
2021/05/16 09:15:32;;;;;;;1.26;0.99;;;;;;;19.02;50.87;99315.86;;;;-51
2021/05/16 09:18:33;;;;;;;2.07;1.01;;;;;;;19.02;50.88;99322.28;;;;-52
2021/05/16 09:21:33;;;;;;;2.59;1.21;;;;;;;19.03;50.86;99325.35;;;;-54
2021/05/16 09:24:32;;;;;;;1.18;1.02;;;;;;;19.02;50.86;99323.34;;;;-51
2021/05/16 09:27:35;;;;;;;1.15;1.00;;;;;;;19.02;50.86;99324.47;;;;-52
2021/05/16 09:30:32;;;;;;;1.15;1.04;;;;;;;19.03;50.79;99322.11;;;;-53
2021/05/16 09:33:32;;;;;;;0.90;0.90;;;;;;;19.02;50.79;99320.73;;;;-54
2021/05/16 09:36:32;;;;;;;1.34;0.97;;;;;;;19.03;50.80;99328.27;;;;-54
2021/05/16 09:39:34;;;;;;;1.52;0.87;;;;;;;19.03;50.74;99324.88;;;;-57
2021/05/16 09:42:32;;;;;;;2.15;1.07;;;;;;;19.03;50.71;99325.63;;;;-57
2021/05/16 09:45:32;;;;;;;1.41;0.97;;;;;;;19.02;50.76;99331.70;;;;-57
2021/05/16 09:48:33;;;;;;;1.10;1.00;;;;;;;19.03;50.70;99326.00;;;;-51
2021/05/16 09:51:33;;;;;;;1.51;1.09;;;;;;;19.03;50.70;99319.78;;;;-52
2021/05/16 09:54:32;;;;;;;0.99;0.98;;;;;;;19.02;50.71;99319.76;;;;-51
2021/05/16 09:57:33;;;;;;;1.22;1.10;;;;;;;19.03;50.70;99314.80;;;;-51
2021/05/16 10:00:32;;;;;;;1.14;1.04;;;;;;;19.03;50.64;99315.14;;;;-54
2021/05/16 10:03:32;;;;;;;1.22;1.12;;;;;;;19.02;50.65;99312.38;;;;-55
2021/05/16 10:06:32;;;;;;;1.12;1.05;;;;;;;19.02;50.68;99313.27;;;;-54
2021/05/16 10:09:32;;;;;;;1.41;0.95;;;;;;;19.01;50.63;99308.09;;;;-54
2021/05/16 10:12:32;;;;;;;1.01;0.89;;;;;;;19.01;50.61;99301.44;;;;-54
2021/05/16 10:15:36;;;;;;;1.17;1.00;;;;;;;19.01;50.61;99307.28;;;;-56
2021/05/16 10:18:32;;;;;;;1.06;0.95;;;;;;;19.02;50.59;99301.58;;;;-56
2021/05/16 10:21:32;;;;;;;1.05;0.95;;;;;;;19.02;50.59;99299.47;;;;-57
2021/05/16 10:24:32;;;;;;;0.81;0.81;;;;;;;19.02;50.57;99296.55;;;;-56
2021/05/16 10:27:33;;;;;;;0.95;0.91;;;;;;;19.01;50.58;99276.27;;;;-53
2021/05/16 10:30:32;;;;;;;1.45;0.80;;;;;;;19.01;50.57;99272.69;;;;-53
2021/05/16 10:33:32;;;;;;;1.07;0.97;;;;;;;19.02;50.50;99272.52;;;;-53
2021/05/16 10:36:32;;;;;;;1.42;1.00;;;;;;;19.01;50.56;99263.29;;;;-55
2021/05/16 10:39:32;;;;;;;0.89;0.89;;;;;;;19.01;50.54;99253.53;;;;-54
2021/05/16 10:42:33;;;;;;;1.13;1.03;;;;;;;19.01;50.53;99254.03;;;;-54
2021/05/16 10:45:34;;;;;;;1.01;0.99;;;;;;;19.01;50.52;99250.95;;;;-51
2021/05/16 10:48:34;;;;;;;0.91;0.91;;;;;;;19.01;50.49;99242.49;;;;-51
2021/05/16 10:51:32;;;;;;;1.19;1.00;;;;;;;19.01;50.52;99247.13;;;;-52
2021/05/16 10:54:32;;;;;;;1.03;0.91;;;;;;;19.01;50.46;99235.20;;;;-52
2021/05/16 10:57:32;;;;;;;1.03;1.00;;;;;;;19.01;50.44;99235.52;;;;-52
2021/05/16 11:00:34;;;;;;;0.81;0.81;;;;;;;19.01;50.48;99228.22;;;;-53
2021/05/16 11:03:32;;;;;;;1.14;1.00;;;;;;;19.00;50.49;99230.31;;;;-53
2021/05/16 11:06:32;;;;;;;0.89;0.89;;;;;;;19.00;50.47;99226.98;;;;-53
2021/05/16 11:09:36;;;;;;;1.38;1.00;;;;;;;19.01;50.44;99216.44;;;;-53
2021/05/16 11:12:32;;;;;;;0.81;0.81;;;;;;;19.00;50.46;99218.38;;;;-55
2021/05/16 11:15:32;;;;;;;1.31;0.92;;;;;;;19.01;50.46;99223.56;;;;-54
2021/05/16 11:18:32;;;;;;;1.31;1.00;;;;;;;19.00;50.49;99221.32;;;;-55
2021/05/16 11:21:32;;;;;;;0.89;0.89;;;;;;;19.00;50.45;99220.49;;;;-54
2021/05/16 11:24:32;;;;;;;0.90;0.90;;;;;;;19.00;50.44;99213.91;;;;-54
2021/05/16 11:27:32;;;;;;;1.11;0.91;;;;;;;18.98;50.46;99197.70;;;;-55
2021/05/16 11:30:33;;;;;;;0.89;0.80;;;;;;;18.99;50.47;99183.66;;;;-57
2021/05/16 11:33:32;;;;;;;1.12;0.91;;;;;;;18.99;50.46;99178.07;;;;-52
2021/05/16 11:36:32;;;;;;;0.85;0.85;;;;;;;18.98;50.44;99180.97;;;;-51
2021/05/16 11:39:32;;;;;;;1.09;0.99;;;;;;;18.98;50.44;99172.77;;;;-58
2021/05/16 11:42:32;;;;;;;0.89;0.89;;;;;;;18.98;50.41;99174.08;;;;-57
2021/05/16 11:45:32;;;;;;;1.25;1.00;;;;;;;18.98;50.38;99167.33;;;;-53
2021/05/16 11:48:34;;;;;;;1.02;0.99;;;;;;;18.98;50.43;99165.95;;;;-52
2021/05/16 11:51:33;;;;;;;0.89;0.89;;;;;;;18.98;50.39;99163.11;;;;-53
2021/05/16 11:54:32;;;;;;;0.73;0.73;;;;;;;18.98;50.40;99160.12;;;;-53
2021/05/16 11:57:32;;;;;;;0.99;0.95;;;;;;;18.98;50.39;99161.73;;;;-53
2021/05/16 12:00:32;;;;;;;1.10;1.00;;;;;;;18.98;50.38;99160.43;;;;-53
2021/05/16 12:03:32;;;;;;;0.93;0.75;;;;;;;18.99;50.35;99159.47;;;;-53
2021/05/16 12:06:32;;;;;;;0.85;0.83;;;;;;;18.98;50.40;99157.69;;;;-53
2021/05/16 12:09:32;;;;;;;1.11;1.00;;;;;;;18.98;50.37;99151.34;;;;-53
2021/05/16 12:12:32;;;;;;;0.82;0.82;;;;;;;18.99;50.38;99150.30;;;;-53
2021/05/16 12:15:32;;;;;;;1.21;0.94;;;;;;;19.00;50.36;99157.17;;;;-54
2021/05/16 12:18:32;;;;;;;0.79;0.79;;;;;;;19.00;50.34;99152.63;;;;-54
2021/05/16 12:21:32;;;;;;;0.79;0.79;;;;;;;19.00;50.35;99151.17;;;;-53
2021/05/16 12:24:32;;;;;;;1.07;1.00;;;;;;;19.00;50.34;99154.59;;;;-53
2021/05/16 12:27:32;;;;;;;2.19;0.89;;;;;;;19.00;50.31;99158.95;;;;-58
2021/05/16 12:30:32;;;;;;;0.97;0.97;;;;;;;19.01;50.28;99160.51;;;;-57
2021/05/16 12:33:32;;;;;;;0.98;0.90;;;;;;;19.00;50.29;99162.11;;;;-57
2021/05/16 12:36:32;;;;;;;0.90;0.90;;;;;;;19.01;50.28;99158.30;;;;-58
2021/05/16 12:39:32;;;;;;;0.91;0.91;;;;;;;19.01;50.29;99145.39;;;;-57
2021/05/16 12:42:33;;;;;;;0.84;0.84;;;;;;;19.01;50.28;99136.05;;;;-57
2021/05/16 12:45:32;;;;;;;0.87;0.87;;;;;;;19.01;50.30;99139.96;;;;-57
2021/05/16 12:48:32;;;;;;;1.00;1.00;;;;;;;19.01;50.23;99133.94;;;;-54
2021/05/16 12:51:33;;;;;;;0.88;0.88;;;;;;;19.01;50.26;99116.02;;;;-54
2021/05/16 12:54:32;;;;;;;1.84;0.93;;;;;;;19.02;50.45;99104.39;;;;-52
2021/05/16 12:57:42;;;;;;;1.85;1.00;;;;;;;19.03;50.50;99100.48;;;;-66
2021/05/16 13:00:32;;;;;;;1.10;0.90;;;;;;;19.04;50.57;99103.38;;;;-55
2021/05/16 13:03:32;;;;;;;1.51;1.00;;;;;;;19.06;50.69;99105.22;;;;-55
2021/05/16 13:06:32;;;;;;;2.35;1.01;;;;;;;19.06;50.50;99103.84;;;;-55
2021/05/16 13:09:32;;;;;;;0.92;0.90;;;;;;;19.06;50.55;99104.33;;;;-55
2021/05/16 13:12:32;;;;;;;1.19;0.89;;;;;;;19.05;50.53;99088.99;;;;-55
2021/05/16 13:15:32;;;;;;;1.73;0.90;;;;;;;19.06;50.52;99090.93;;;;-55
2021/05/16 13:18:32;;;;;;;0.80;0.80;;;;;;;19.07;50.47;99091.39;;;;-55
2021/05/16 13:21:32;;;;;;;1.02;0.97;;;;;;;19.06;50.44;99088.64;;;;-55
2021/05/16 13:24:32;;;;;;;0.88;0.84;;;;;;;19.06;50.47;99089.61;;;;-55
2021/05/16 13:27:32;;;;;;;0.88;0.88;;;;;;;19.06;50.42;99092.70;;;;-55
2021/05/16 13:30:32;;;;;;;0.99;0.91;;;;;;;19.07;50.40;99087.49;;;;-55
2021/05/16 13:33:32;;;;;;;1.07;1.00;;;;;;;19.06;50.40;99082.47;;;;-55
2021/05/16 13:36:32;;;;;;;1.11;0.91;;;;;;;19.07;50.36;99073.80;;;;-55
2021/05/16 13:39:32;;;;;;;1.10;1.00;;;;;;;19.09;50.61;99072.45;;;;-51
2021/05/16 13:42:32;;;;;;;2.16;1.01;;;;;;;19.09;50.54;99059.86;;;;-57
2021/05/16 13:45:32;;;;;;;1.83;0.95;;;;;;;19.10;50.52;99059.86;;;;-58
2021/05/16 13:48:32;;;;;;;0.97;0.91;;;;;;;19.11;50.53;99059.28;;;;-57
2021/05/16 13:51:33;;;;;;;0.85;0.81;;;;;;;19.12;50.54;99054.39;;;;-58
2021/05/16 13:54:32;;;;;;;1.04;0.94;;;;;;;19.13;50.70;99056.16;;;;-58
2021/05/16 13:57:32;;;;;;;1.11;1.00;;;;;;;19.15;50.86;99047.59;;;;-60
2021/05/16 14:00:32;;;;;;;1.27;1.05;;;;;;;19.15;50.67;99045.00;;;;-60
2021/05/16 14:03:32;;;;;;;1.11;0.98;;;;;;;19.14;50.61;99047.22;;;;-60
2021/05/16 14:06:33;;;;;;;1.82;0.99;;;;;;;19.14;50.57;99047.47;;;;-60
2021/05/16 14:09:32;;;;;;;2.23;1.00;;;;;;;19.14;50.58;99045.27;;;;-61
2021/05/16 14:12:32;;;;;;;2.52;0.97;;;;;;;19.14;50.58;99055.48;;;;-61
2021/05/16 14:15:32;;;;;;;0.83;0.81;;;;;;;19.13;50.51;99049.56;;;;-61
2021/05/16 14:18:32;;;;;;;2.10;1.04;;;;;;;19.13;50.52;99042.09;;;;-58
2021/05/16 14:21:32;;;;;;;1.24;0.99;;;;;;;19.13;50.47;99046.41;;;;-58
2021/05/16 14:24:32;;;;;;;1.09;0.91;;;;;;;19.13;50.46;99041.71;;;;-60
2021/05/16 14:27:33;;;;;;;0.93;0.90;;;;;;;19.13;50.42;99039.19;;;;-60
2021/05/16 14:30:32;;;;;;;0.87;0.87;;;;;;;19.12;50.40;99029.13;;;;-58
2021/05/16 14:33:32;;;;;;;1.10;1.00;;;;;;;19.13;50.39;99020.33;;;;-57
2021/05/16 14:36:32;;;;;;;2.00;1.00;;;;;;;19.12;50.37;99017.44;;;;-58
2021/05/16 14:39:32;;;;;;;2.10;0.89;;;;;;;19.13;50.37;99009.30;;;;-58
2021/05/16 14:42:32;;;;;;;0.80;0.80;;;;;;;19.12;50.37;99008.27;;;;-61
2021/05/16 14:45:32;;;;;;;0.87;0.85;;;;;;;19.12;50.34;99007.46;;;;-61
2021/05/16 14:48:40;;;;;;;1.07;0.91;;;;;;;19.11;50.35;99006.98;;;;-61
2021/05/16 14:51:32;;;;;;;1.08;0.97;;;;;;;19.12;50.27;99010.63;;;;-60
2021/05/16 14:54:32;;;;;;;1.24;0.95;;;;;;;19.11;50.33;99011.05;;;;-60
2021/05/16 14:57:32;;;;;;;1.11;1.03;;;;;;;19.12;50.53;98997.95;;;;-63
2021/05/16 15:00:32;;;;;;;1.12;1.00;;;;;;;19.12;50.81;98996.24;;;;-56
2021/05/16 15:03:32;;;;;;;1.05;0.97;;;;;;;19.14;50.67;98993.23;;;;-59
2021/05/16 15:06:33;;;;;;;1.82;1.05;;;;;;;19.14;50.69;98985.17;;;;-57
2021/05/16 15:09:32;;;;;;;0.99;0.89;;;;;;;19.16;50.84;98978.91;;;;-54
2021/05/16 15:12:32;;;;;;;1.77;0.82;;;;;;;19.16;51.09;98967.75;;;;-58
2021/05/16 15:15:32;;;;;;;1.13;0.97;;;;;;;19.17;51.16;98972.52;;;;-57
2021/05/16 15:18:33;;;;;;;1.75;1.00;;;;;;;19.18;51.12;98968.21;;;;-54
2021/05/16 15:21:32;;;;;;;1.03;0.90;;;;;;;19.19;51.13;98971.05;;;;-52
2021/05/16 15:24:32;;;;;;;0.87;0.87;;;;;;;19.20;51.21;98970.22;;;;-58
2021/05/16 15:27:32;;;;;;;1.31;0.97;;;;;;;19.21;51.13;98968.09;;;;-59
2021/05/16 15:30:32;;;;;;;1.09;0.99;;;;;;;19.22;51.14;98957.94;;;;-58
2021/05/16 15:33:32;;;;;;;1.00;0.95;;;;;;;19.23;51.12;98957.89;;;;-60
2021/05/16 15:36:32;;;;;;;2.62;0.91;;;;;;;19.24;51.18;98950.84;;;;-60
2021/05/16 15:39:32;;;;;;;1.05;0.89;;;;;;;19.25;51.17;98940.73;;;;-49
2021/05/16 15:42:34;;;;;;;1.99;0.95;;;;;;;19.26;51.18;98941.36;;;;-52
2021/05/16 15:45:32;;;;;;;1.14;0.89;;;;;;;19.26;51.16;98937.00;;;;-57
2021/05/16 15:48:32;;;;;;;3.67;0.99;;;;;;;19.27;51.21;98931.91;;;;-50
2021/05/16 15:51:32;;;;;;;3.41;1.09;;;;;;;19.27;51.14;98925.09;;;;-53
2021/05/16 15:54:32;;;;;;;1.14;1.01;;;;;;;19.28;51.06;98921.42;;;;-63
2021/05/16 15:57:32;;;;;;;1.86;1.01;;;;;;;19.28;51.17;98925.09;;;;-57
2021/05/16 16:00:32;;;;;;;1.98;1.11;;;;;;;19.29;51.13;98926.94;;;;-59
2021/05/16 16:03:32;;;;;;;1.11;0.99;;;;;;;19.30;51.11;98926.27;;;;-52
2021/05/16 16:06:33;;;;;;;0.91;0.87;;;;;;;19.31;51.05;98922.34;;;;-60
2021/05/16 16:09:33;;;;;;;0.84;0.84;;;;;;;19.33;51.13;98928.98;;;;-60
2021/05/16 16:12:32;;;;;;;2.53;1.15;;;;;;;19.32;51.10;98922.42;;;;-60
2021/05/16 16:15:32;;;;;;;1.62;1.10;;;;;;;19.32;51.06;98922.19;;;;-56
2021/05/16 16:18:32;;;;;;;1.99;1.00;;;;;;;19.33;51.17;98919.96;;;;-52
2021/05/16 16:21:32;;;;;;;1.21;1.03;;;;;;;19.34;51.11;98915.63;;;;-52
2021/05/16 16:24:32;;;;;;;1.75;0.99;;;;;;;19.36;51.13;98913.73;;;;-52
2021/05/16 16:27:32;;;;;;;1.15;1.01;;;;;;;19.35;51.05;98905.31;;;;-49
2021/05/16 16:30:33;;;;;;;1.17;1.01;;;;;;;19.35;51.11;98904.57;;;;-53
2021/05/16 16:33:32;;;;;;;2.15;1.03;;;;;;;19.35;51.03;98900.92;;;;-55
2021/05/16 16:36:32;;;;;;;2.09;0.95;;;;;;;19.35;51.02;98910.58;;;;-52
2021/05/16 16:39:32;;;;;;;1.32;1.00;;;;;;;19.36;51.04;98907.97;;;;-54
2021/05/16 16:42:32;;;;;;;1.51;1.00;;;;;;;19.36;51.07;98909.53;;;;-51
2021/05/16 16:45:32;;;;;;;1.03;1.01;;;;;;;19.37;51.02;98907.23;;;;-50
2021/05/16 16:48:35;;;;;;;1.20;1.10;;;;;;;19.37;51.06;98910.72;;;;-49
2021/05/16 16:51:32;;;;;;;0.98;0.98;;;;;;;19.38;50.98;98913.55;;;;-56
2021/05/16 16:54:32;;;;;;;6.23;1.31;;;;;;;19.39;51.15;98912.94;;;;-58